Industry, Illinois
Current Conditions -  °F | °C
As of 3:15 AM on Friday 19 Dec 2014 (Local Time) from KMQB Reporting Station
Overcast Overcast  
Wind Chill: 28°   Ceiling: 4600
Heat Index: 28°   Visibility: 10mi
Dew Point: 24°   Wind: 0mph
Humidity: 86%   Direction: NA
Pressure: 30.31"   Gusts: NA
Location:  40.33°N, 90.61°W
Report Text: KMQB 190915Z AUTO 00000KT 10SM OVC046 M02/M04 A3031 RMK AO2 T10221042
Loading
Personal Weather Stations






























Interactive Weather Map New forecast layout! Learn more

10-Day Weather Forecast

Advertisements
Track Severe Weather on mobile